sensor_id;sensor_type;location;lat;lon;timestamp;P1;durP1;ratioP1;P2;durP2;ratioP2
17921;SDS011;9086;50.966;3.144;2023-03-17T00:01:02;4.03;;;2.60;;
17921;SDS011;9086;50.966;3.144;2023-03-17T00:03:29;3.73;;;2.63;;
17921;SDS011;9086;50.966;3.144;2023-03-17T00:05:58;4.17;;;2.63;;
17921;SDS011;9086;50.966;3.144;2023-03-17T00:08:26;4.73;;;3.20;;
17921;SDS011;9086;50.966;3.144;2023-03-17T00:10:52;3.13;;;2.93;;
17921;SDS011;9086;50.966;3.144;2023-03-17T00:13:18;3.80;;;2.93;;
17921;SDS011;9086;50.966;3.144;2023-03-17T00:15:45;4.60;;;2.70;;
17921;SDS011;9086;50.966;3.144;2023-03-17T00:18:15;4.23;;;2.60;;
17921;SDS011;9086;50.966;3.144;2023-03-17T00:20:41;5.57;;;2.97;;
17921;SDS011;9086;50.966;3.144;2023-03-17T00:23:11;4.03;;;2.43;;
17921;SDS011;9086;50.966;3.144;2023-03-17T00:25:38;3.77;;;3.07;;
17921;SDS011;9086;50.966;3.144;2023-03-17T00:28:08;7.30;;;2.93;;
17921;SDS011;9086;50.966;3.144;2023-03-17T00:30:36;4.33;;;3.13;;
17921;SDS011;9086;50.966;3.144;2023-03-17T00:33:03;3.93;;;2.83;;
17921;SDS011;9086;50.966;3.144;2023-03-17T00:35:29;5.60;;;3.40;;
17921;SDS011;9086;50.966;3.144;2023-03-17T00:37:56;4.00;;;3.20;;
17921;SDS011;9086;50.966;3.144;2023-03-17T00:40:24;3.87;;;3.20;;
17921;SDS011;9086;50.966;3.144;2023-03-17T00:42:51;4.77;;;3.13;;
17921;SDS011;9086;50.966;3.144;2023-03-17T00:45:18;4.07;;;3.07;;
17921;SDS011;9086;50.966;3.144;2023-03-17T00:47:45;4.77;;;3.40;;
17921;SDS011;9086;50.966;3.144;2023-03-17T00:50:12;3.60;;;2.70;;
17921;SDS011;9086;50.966;3.144;2023-03-17T00:52:39;3.30;;;2.90;;
17921;SDS011;9086;50.966;3.144;2023-03-17T00:55:06;3.57;;;3.27;;
17921;SDS011;9086;50.966;3.144;2023-03-17T00:57:33;3.60;;;2.90;;
17921;SDS011;9086;50.966;3.144;2023-03-17T00:59:59;3.20;;;2.87;;
17921;SDS011;9086;50.966;3.144;2023-03-17T01:02:25;3.83;;;3.50;;
17921;SDS011;9086;50.966;3.144;2023-03-17T01:04:51;4.83;;;3.27;;
17921;SDS011;9086;50.966;3.144;2023-03-17T01:07:18;4.33;;;3.10;;
17921;SDS011;9086;50.966;3.144;2023-03-17T01:09:44;3.40;;;3.10;;
17921;SDS011;9086;50.966;3.144;2023-03-17T01:12:11;4.00;;;3.10;;
17921;SDS011;9086;50.966;3.144;2023-03-17T01:14:40;3.27;;;2.90;;
17921;SDS011;9086;50.966;3.144;2023-03-17T01:17:14;3.73;;;2.97;;
17921;SDS011;9086;50.966;3.144;2023-03-17T01:19:41;3.97;;;2.70;;
17921;SDS011;9086;50.966;3.144;2023-03-17T01:22:07;2.97;;;2.70;;
17921;SDS011;9086;50.966;3.144;2023-03-17T01:24:33;4.37;;;2.90;;
17921;SDS011;9086;50.966;3.144;2023-03-17T01:27:00;3.10;;;2.80;;
17921;SDS011;9086;50.966;3.144;2023-03-17T01:29:26;5.03;;;2.87;;
17921;SDS011;9086;50.966;3.144;2023-03-17T01:31:52;3.80;;;2.83;;
17921;SDS011;9086;50.966;3.144;2023-03-17T01:34:18;3.67;;;2.80;;
17921;SDS011;9086;50.966;3.144;2023-03-17T01:36:44;4.57;;;3.03;;
17921;SDS011;9086;50.966;3.144;2023-03-17T01:39:11;2.97;;;2.50;;
17921;SDS011;9086;50.966;3.144;2023-03-17T01:41:37;4.50;;;3.10;;
17921;SDS011;9086;50.966;3.144;2023-03-17T01:44:04;4.03;;;2.90;;
17921;SDS011;9086;50.966;3.144;2023-03-17T01:46:31;3.33;;;3.00;;
17921;SDS011;9086;50.966;3.144;2023-03-17T01:54:07;3.37;;;2.67;;
17921;SDS011;9086;50.966;3.144;2023-03-17T01:56:34;5.80;;;3.23;;
17921;SDS011;9086;50.966;3.144;2023-03-17T01:59:02;4.63;;;2.97;;
17921;SDS011;9086;50.966;3.144;2023-03-17T02:01:32;3.57;;;3.20;;
17921;SDS011;9086;50.966;3.144;2023-03-17T02:04:01;3.37;;;3.07;;
17921;SDS011;9086;50.966;3.144;2023-03-17T02:06:28;5.23;;;3.40;;
17921;SDS011;9086;50.966;3.144;2023-03-17T02:08:54;4.40;;;3.47;;
17921;SDS011;9086;50.966;3.144;2023-03-17T02:11:20;4.33;;;2.87;;
17921;SDS011;9086;50.966;3.144;2023-03-17T02:13:47;3.17;;;2.73;;
17921;SDS011;9086;50.966;3.144;2023-03-17T02:16:15;9.57;;;3.43;;
17921;SDS011;9086;50.966;3.144;2023-03-17T02:18:41;3.50;;;3.20;;
17921;SDS011;9086;50.966;3.144;2023-03-17T02:23:52;4.73;;;3.17;;
17921;SDS011;9086;50.966;3.144;2023-03-17T02:26:19;4.60;;;3.20;;
17921;SDS011;9086;50.966;3.144;2023-03-17T02:28:47;3.27;;;2.97;;
17921;SDS011;9086;50.966;3.144;2023-03-17T02:31:13;4.57;;;2.93;;
17921;SDS011;9086;50.966;3.144;2023-03-17T02:33:40;4.43;;;3.60;;
17921;SDS011;9086;50.966;3.144;2023-03-17T02:36:06;4.50;;;3.17;;
17921;SDS011;9086;50.966;3.144;2023-03-17T02:38:33;4.27;;;2.90;;
17921;SDS011;9086;50.966;3.144;2023-03-17T02:40:59;4.87;;;2.90;;
17921;SDS011;9086;50.966;3.144;2023-03-17T02:43:25;4.37;;;3.40;;
17921;SDS011;9086;50.966;3.144;2023-03-17T02:45:51;3.80;;;3.27;;
17921;SDS011;9086;50.966;3.144;2023-03-17T02:48:17;4.30;;;3.90;;
17921;SDS011;9086;50.966;3.144;2023-03-17T02:50:44;3.37;;;3.07;;
17921;SDS011;9086;50.966;3.144;2023-03-17T02:53:10;3.87;;;3.10;;
17921;SDS011;9086;50.966;3.144;2023-03-17T02:55:36;5.10;;;3.43;;
17921;SDS011;9086;50.966;3.144;2023-03-17T02:58:02;6.87;;;3.27;;
17921;SDS011;9086;50.966;3.144;2023-03-17T03:00:28;4.67;;;3.43;;
17921;SDS011;9086;50.966;3.144;2023-03-17T03:02:54;4.20;;;3.77;;
17921;SDS011;9086;50.966;3.144;2023-03-17T03:05:20;3.93;;;3.30;;
17921;SDS011;9086;50.966;3.144;2023-03-17T03:07:46;5.30;;;3.73;;
17921;SDS011;9086;50.966;3.144;2023-03-17T03:10:12;4.27;;;3.37;;
17921;SDS011;9086;50.966;3.144;2023-03-17T03:12:39;4.63;;;3.67;;
17921;SDS011;9086;50.966;3.144;2023-03-17T03:15:05;6.57;;;3.47;;
17921;SDS011;9086;50.966;3.144;2023-03-17T03:17:33;4.23;;;3.50;;
17921;SDS011;9086;50.966;3.144;2023-03-17T03:19:59;4.27;;;3.73;;
17921;SDS011;9086;50.966;3.144;2023-03-17T03:22:26;3.93;;;3.23;;
17921;SDS011;9086;50.966;3.144;2023-03-17T03:24:52;4.13;;;3.60;;
17921;SDS011;9086;50.966;3.144;2023-03-17T03:27:18;3.77;;;3.30;;
17921;SDS011;9086;50.966;3.144;2023-03-17T03:29:44;4.10;;;3.50;;
17921;SDS011;9086;50.966;3.144;2023-03-17T03:32:10;3.73;;;3.43;;
17921;SDS011;9086;50.966;3.144;2023-03-17T03:34:36;6.23;;;3.73;;
17921;SDS011;9086;50.966;3.144;2023-03-17T03:37:02;6.17;;;4.00;;
17921;SDS011;9086;50.966;3.144;2023-03-17T03:39:28;6.00;;;3.27;;
17921;SDS011;9086;50.966;3.144;2023-03-17T03:41:54;5.13;;;4.00;;
17921;SDS011;9086;50.966;3.144;2023-03-17T03:44:23;3.63;;;3.30;;
17921;SDS011;9086;50.966;3.144;2023-03-17T03:46:49;3.63;;;3.33;;
17921;SDS011;9086;50.966;3.144;2023-03-17T03:49:15;3.47;;;3.17;;
17921;SDS011;9086;50.966;3.144;2023-03-17T03:51:41;5.13;;;3.27;;
17921;SDS011;9086;50.966;3.144;2023-03-17T03:54:07;4.87;;;4.30;;
17921;SDS011;9086;50.966;3.144;2023-03-17T03:56:33;5.03;;;4.03;;
17921;SDS011;9086;50.966;3.144;2023-03-17T03:58:59;5.67;;;3.87;;
17921;SDS011;9086;50.966;3.144;2023-03-17T04:01:26;6.57;;;4.33;;
17921;SDS011;9086;50.966;3.144;2023-03-17T04:03:52;5.27;;;3.87;;
17921;SDS011;9086;50.966;3.144;2023-03-17T04:06:18;5.63;;;3.60;;
17921;SDS011;9086;50.966;3.144;2023-03-17T04:08:44;4.20;;;3.43;;
17921;SDS011;9086;50.966;3.144;2023-03-17T04:11:10;4.10;;;3.70;;
17921;SDS011;9086;50.966;3.144;2023-03-17T04:13:36;4.63;;;3.27;;
17921;SDS011;9086;50.966;3.144;2023-03-17T04:16:02;4.60;;;3.70;;
17921;SDS011;9086;50.966;3.144;2023-03-17T04:18:28;5.27;;;3.57;;
17921;SDS011;9086;50.966;3.144;2023-03-17T04:20:55;7.07;;;3.57;;
17921;SDS011;9086;50.966;3.144;2023-03-17T04:23:21;4.57;;;3.60;;
17921;SDS011;9086;50.966;3.144;2023-03-17T04:25:49;4.70;;;3.83;;
17921;SDS011;9086;50.966;3.144;2023-03-17T04:28:15;4.80;;;3.60;;
17921;SDS011;9086;50.966;3.144;2023-03-17T04:30:41;4.67;;;3.60;;
17921;SDS011;9086;50.966;3.144;2023-03-17T04:33:07;10.30;;;4.20;;
17921;SDS011;9086;50.966;3.144;2023-03-17T04:35:33;5.67;;;3.83;;
17921;SDS011;9086;50.966;3.144;2023-03-17T04:37:59;8.80;;;4.53;;
17921;SDS011;9086;50.966;3.144;2023-03-17T04:40:25;5.70;;;4.43;;
17921;SDS011;9086;50.966;3.144;2023-03-17T04:42:51;4.90;;;3.67;;
17921;SDS011;9086;50.966;3.144;2023-03-17T04:45:17;3.93;;;3.50;;
17921;SDS011;9086;50.966;3.144;2023-03-17T04:47:43;4.17;;;3.80;;
17921;SDS011;9086;50.966;3.144;2023-03-17T04:50:10;5.17;;;3.70;;
17921;SDS011;9086;50.966;3.144;2023-03-17T04:52:36;6.27;;;4.20;;
17921;SDS011;9086;50.966;3.144;2023-03-17T04:55:03;6.63;;;4.23;;
17921;SDS011;9086;50.966;3.144;2023-03-17T04:57:30;7.27;;;3.80;;
17921;SDS011;9086;50.966;3.144;2023-03-17T04:59:56;8.33;;;4.03;;
17921;SDS011;9086;50.966;3.144;2023-03-17T05:02:22;4.87;;;3.70;;
17921;SDS011;9086;50.966;3.144;2023-03-17T05:04:48;5.43;;;3.67;;
17921;SDS011;9086;50.966;3.144;2023-03-17T05:07:14;4.37;;;3.90;;
17921;SDS011;9086;50.966;3.144;2023-03-17T05:09:40;7.07;;;4.07;;
17921;SDS011;9086;50.966;3.144;2023-03-17T05:12:07;4.93;;;3.23;;
17921;SDS011;9086;50.966;3.144;2023-03-17T05:14:33;5.17;;;3.20;;
17921;SDS011;9086;50.966;3.144;2023-03-17T05:16:59;5.63;;;4.17;;
17921;SDS011;9086;50.966;3.144;2023-03-17T05:19:25;6.83;;;3.47;;
17921;SDS011;9086;50.966;3.144;2023-03-17T05:21:52;4.40;;;3.23;;
17921;SDS011;9086;50.966;3.144;2023-03-17T05:24:18;7.07;;;4.10;;
17921;SDS011;9086;50.966;3.144;2023-03-17T05:26:44;5.00;;;3.77;;
17921;SDS011;9086;50.966;3.144;2023-03-17T05:29:10;5.30;;;3.80;;
17921;SDS011;9086;50.966;3.144;2023-03-17T05:31:36;9.03;;;4.20;;
17921;SDS011;9086;50.966;3.144;2023-03-17T05:34:02;10.53;;;3.90;;
17921;SDS011;9086;50.966;3.144;2023-03-17T05:36:29;4.13;;;3.70;;
17921;SDS011;9086;50.966;3.144;2023-03-17T05:38:56;6.07;;;4.20;;
17921;SDS011;9086;50.966;3.144;2023-03-17T05:41:22;6.77;;;3.67;;
17921;SDS011;9086;50.966;3.144;2023-03-17T05:43:48;6.17;;;3.57;;
17921;SDS011;9086;50.966;3.144;2023-03-17T05:46:14;4.77;;;3.20;;
17921;SDS011;9086;50.966;3.144;2023-03-17T05:48:40;5.13;;;3.43;;
17921;SDS011;9086;50.966;3.144;2023-03-17T05:51:06;3.43;;;3.13;;
17921;SDS011;9086;50.966;3.144;2023-03-17T05:53:32;6.17;;;3.20;;
17921;SDS011;9086;50.966;3.144;2023-03-17T05:55:59;3.33;;;3.03;;
17921;SDS011;9086;50.966;3.144;2023-03-17T05:58:25;3.53;;;3.10;;
17921;SDS011;9086;50.966;3.144;2023-03-17T06:00:51;5.20;;;3.50;;
17921;SDS011;9086;50.966;3.144;2023-03-17T06:03:17;4.43;;;3.50;;
17921;SDS011;9086;50.966;3.144;2023-03-17T06:05:43;5.23;;;2.70;;
17921;SDS011;9086;50.966;3.144;2023-03-17T06:08:10;6.77;;;3.70;;
17921;SDS011;9086;50.966;3.144;2023-03-17T06:10:36;3.60;;;3.30;;
17921;SDS011;9086;50.966;3.144;2023-03-17T06:13:02;4.07;;;2.87;;
17921;SDS011;9086;50.966;3.144;2023-03-17T06:15:28;4.60;;;3.37;;
17921;SDS011;9086;50.966;3.144;2023-03-17T06:17:55;4.83;;;3.67;;
17921;SDS011;9086;50.966;3.144;2023-03-17T06:20:21;5.03;;;3.70;;
17921;SDS011;9086;50.966;3.144;2023-03-17T06:22:47;6.27;;;3.50;;
17921;SDS011;9086;50.966;3.144;2023-03-17T06:25:13;5.40;;;3.63;;
17921;SDS011;9086;50.966;3.144;2023-03-17T06:27:39;8.73;;;5.37;;
17921;SDS011;9086;50.966;3.144;2023-03-17T06:30:06;6.37;;;4.33;;
17921;SDS011;9086;50.966;3.144;2023-03-17T06:32:33;5.63;;;4.07;;
17921;SDS011;9086;50.966;3.144;2023-03-17T06:34:59;7.47;;;4.13;;
17921;SDS011;9086;50.966;3.144;2023-03-17T06:37:25;8.27;;;4.63;;
17921;SDS011;9086;50.966;3.144;2023-03-17T06:39:51;6.70;;;3.97;;
17921;SDS011;9086;50.966;3.144;2023-03-17T06:42:17;9.27;;;4.47;;
17921;SDS011;9086;50.966;3.144;2023-03-17T06:44:43;5.17;;;4.00;;
17921;SDS011;9086;50.966;3.144;2023-03-17T06:47:09;4.23;;;3.53;;
17921;SDS011;9086;50.966;3.144;2023-03-17T06:49:35;6.43;;;4.07;;
17921;SDS011;9086;50.966;3.144;2023-03-17T06:52:01;5.37;;;3.60;;
17921;SDS011;9086;50.966;3.144;2023-03-17T06:54:27;4.17;;;3.80;;
17921;SDS011;9086;50.966;3.144;2023-03-17T06:56:54;5.20;;;3.83;;
17921;SDS011;9086;50.966;3.144;2023-03-17T06:59:20;6.43;;;4.37;;
17921;SDS011;9086;50.966;3.144;2023-03-17T07:01:46;4.77;;;4.10;;
17921;SDS011;9086;50.966;3.144;2023-03-17T07:04:13;5.43;;;4.10;;
17921;SDS011;9086;50.966;3.144;2023-03-17T07:06:39;4.43;;;3.90;;
17921;SDS011;9086;50.966;3.144;2023-03-17T07:09:05;5.07;;;4.23;;
17921;SDS011;9086;50.966;3.144;2023-03-17T07:11:31;4.10;;;3.63;;
17921;SDS011;9086;50.966;3.144;2023-03-17T07:13:58;5.40;;;4.00;;
17921;SDS011;9086;50.966;3.144;2023-03-17T07:16:24;4.77;;;4.03;;
17921;SDS011;9086;50.966;3.144;2023-03-17T07:18:50;6.27;;;3.50;;
17921;SDS011;9086;50.966;3.144;2023-03-17T07:21:17;6.40;;;3.50;;
17921;SDS011;9086;50.966;3.144;2023-03-17T07:23:43;7.00;;;3.60;;
17921;SDS011;9086;50.966;3.144;2023-03-17T07:26:09;10.23;;;3.83;;
17921;SDS011;9086;50.966;3.144;2023-03-17T07:28:35;6.93;;;3.60;;
17921;SDS011;9086;50.966;3.144;2023-03-17T07:31:01;5.17;;;4.20;;
17921;SDS011;9086;50.966;3.144;2023-03-17T07:33:27;5.63;;;3.93;;
17921;SDS011;9086;50.966;3.144;2023-03-17T07:35:53;12.67;;;4.30;;
17921;SDS011;9086;50.966;3.144;2023-03-17T07:38:19;5.20;;;3.30;;
17921;SDS011;9086;50.966;3.144;2023-03-17T07:40:47;5.83;;;3.60;;
17921;SDS011;9086;50.966;3.144;2023-03-17T07:43:14;3.77;;;3.47;;
17921;SDS011;9086;50.966;3.144;2023-03-17T07:45:40;7.30;;;4.03;;
17921;SDS011;9086;50.966;3.144;2023-03-17T07:48:06;6.13;;;4.17;;
17921;SDS011;9086;50.966;3.144;2023-03-17T07:50:33;6.83;;;4.13;;
17921;SDS011;9086;50.966;3.144;2023-03-17T07:52:59;6.43;;;3.77;;
17921;SDS011;9086;50.966;3.144;2023-03-17T07:55:25;7.60;;;3.83;;
17921;SDS011;9086;50.966;3.144;2023-03-17T07:57:51;7.40;;;4.13;;
17921;SDS011;9086;50.966;3.144;2023-03-17T08:00:18;7.03;;;4.00;;
17921;SDS011;9086;50.966;3.144;2023-03-17T08:02:44;7.03;;;4.27;;
17921;SDS011;9086;50.966;3.144;2023-03-17T08:05:10;7.37;;;4.27;;
17921;SDS011;9086;50.966;3.144;2023-03-17T08:07:36;5.27;;;4.43;;
17921;SDS011;9086;50.966;3.144;2023-03-17T08:10:03;7.30;;;4.23;;
17921;SDS011;9086;50.966;3.144;2023-03-17T08:12:30;5.83;;;4.93;;
17921;SDS011;9086;50.966;3.144;2023-03-17T08:14:55;7.77;;;4.10;;
17921;SDS011;9086;50.966;3.144;2023-03-17T08:17:21;8.53;;;4.27;;
17921;SDS011;9086;50.966;3.144;2023-03-17T08:19:51;4.97;;;4.27;;
17921;SDS011;9086;50.966;3.144;2023-03-17T08:22:17;5.37;;;3.97;;
17921;SDS011;9086;50.966;3.144;2023-03-17T08:24:43;6.50;;;4.27;;
17921;SDS011;9086;50.966;3.144;2023-03-17T08:27:09;5.33;;;4.43;;
17921;SDS011;9086;50.966;3.144;2023-03-17T08:29:35;7.40;;;4.80;;
17921;SDS011;9086;50.966;3.144;2023-03-17T08:32:01;7.93;;;4.80;;
17921;SDS011;9086;50.966;3.144;2023-03-17T08:34:27;6.80;;;4.70;;
17921;SDS011;9086;50.966;3.144;2023-03-17T08:36:53;5.27;;;4.77;;
17921;SDS011;9086;50.966;3.144;2023-03-17T08:39:23;10.23;;;5.17;;
17921;SDS011;9086;50.966;3.144;2023-03-17T08:41:51;9.07;;;4.93;;
17921;SDS011;9086;50.966;3.144;2023-03-17T08:44:17;6.00;;;4.73;;
17921;SDS011;9086;50.966;3.144;2023-03-17T08:46:43;5.60;;;5.00;;
17921;SDS011;9086;50.966;3.144;2023-03-17T08:49:10;6.90;;;4.67;;
17921;SDS011;9086;50.966;3.144;2023-03-17T08:51:38;9.47;;;5.40;;
17921;SDS011;9086;50.966;3.144;2023-03-17T08:54:04;5.70;;;5.13;;
17921;SDS011;9086;50.966;3.144;2023-03-17T08:56:31;7.37;;;5.30;;
17921;SDS011;9086;50.966;3.144;2023-03-17T08:58:58;7.30;;;5.17;;
17921;SDS011;9086;50.966;3.144;2023-03-17T09:01:24;5.73;;;4.20;;
17921;SDS011;9086;50.966;3.144;2023-03-17T09:03:54;5.10;;;4.60;;
17921;SDS011;9086;50.966;3.144;2023-03-17T09:06:20;6.60;;;4.87;;
17921;SDS011;9086;50.966;3.144;2023-03-17T09:08:47;7.80;;;4.47;;
17921;SDS011;9086;50.966;3.144;2023-03-17T09:11:22;8.30;;;5.10;;
17921;SDS011;9086;50.966;3.144;2023-03-17T09:13:48;8.87;;;5.07;;
17921;SDS011;9086;50.966;3.144;2023-03-17T09:16:14;8.40;;;4.97;;
17921;SDS011;9086;50.966;3.144;2023-03-17T09:18:42;8.83;;;5.10;;
17921;SDS011;9086;50.966;3.144;2023-03-17T09:21:09;4.57;;;4.07;;
17921;SDS011;9086;50.966;3.144;2023-03-17T09:23:35;6.80;;;5.17;;
17921;SDS011;9086;50.966;3.144;2023-03-17T09:26:01;5.93;;;4.70;;
17921;SDS011;9086;50.966;3.144;2023-03-17T09:28:28;7.43;;;4.70;;
17921;SDS011;9086;50.966;3.144;2023-03-17T09:30:57;8.13;;;5.03;;
17921;SDS011;9086;50.966;3.144;2023-03-17T09:33:23;6.70;;;4.90;;
17921;SDS011;9086;50.966;3.144;2023-03-17T09:35:50;14.30;;;5.13;;
17921;SDS011;9086;50.966;3.144;2023-03-17T09:38:17;6.93;;;4.90;;
17921;SDS011;9086;50.966;3.144;2023-03-17T09:40:47;6.10;;;4.40;;
17921;SDS011;9086;50.966;3.144;2023-03-17T09:45:45;7.23;;;4.60;;
17921;SDS011;9086;50.966;3.144;2023-03-17T09:51:11;11.30;;;4.33;;
17921;SDS011;9086;50.966;3.144;2023-03-17T09:56:10;8.43;;;4.83;;
17921;SDS011;9086;50.966;3.144;2023-03-17T09:58:37;6.37;;;4.93;;
17921;SDS011;9086;50.966;3.144;2023-03-17T10:01:04;7.77;;;4.67;;
17921;SDS011;9086;50.966;3.144;2023-03-17T10:03:30;5.97;;;4.73;;
17921;SDS011;9086;50.966;3.144;2023-03-17T10:06:09;7.30;;;4.73;;
17921;SDS011;9086;50.966;3.144;2023-03-17T10:08:36;5.13;;;4.63;;
17921;SDS011;9086;50.966;3.144;2023-03-17T10:16:19;4.10;;;3.70;;
17921;SDS011;9086;50.966;3.144;2023-03-17T10:18:54;5.37;;;3.97;;
17921;SDS011;9086;50.966;3.144;2023-03-17T10:21:30;6.33;;;4.20;;
17921;SDS011;9086;50.966;3.144;2023-03-17T10:23:57;5.33;;;4.23;;
17921;SDS011;9086;50.966;3.144;2023-03-17T10:26:33;8.13;;;4.00;;
17921;SDS011;9086;50.966;3.144;2023-03-17T10:29:03;5.13;;;4.00;;
17921;SDS011;9086;50.966;3.144;2023-03-17T10:31:32;5.43;;;3.70;;
17921;SDS011;9086;50.966;3.144;2023-03-17T10:36:38;6.67;;;4.20;;
17921;SDS011;9086;50.966;3.144;2023-03-17T10:39:05;8.03;;;4.50;;
17921;SDS011;9086;50.966;3.144;2023-03-17T10:41:33;5.17;;;4.50;;
17921;SDS011;9086;50.966;3.144;2023-03-17T10:44:00;4.93;;;4.43;;
17921;SDS011;9086;50.966;3.144;2023-03-17T10:46:26;5.37;;;4.17;;
17921;SDS011;9086;50.966;3.144;2023-03-17T10:49:01;8.17;;;4.70;;
17921;SDS011;9086;50.966;3.144;2023-03-17T10:51:30;7.00;;;4.93;;
17921;SDS011;9086;50.966;3.144;2023-03-17T10:54:01;5.87;;;4.97;;
17921;SDS011;9086;50.966;3.144;2023-03-17T10:56:29;5.93;;;4.50;;
17921;SDS011;9086;50.966;3.144;2023-03-17T10:59:02;7.67;;;4.50;;
17921;SDS011;9086;50.966;3.144;2023-03-17T11:01:39;5.67;;;4.53;;
17921;SDS011;9086;50.966;3.144;2023-03-17T11:06:51;6.23;;;4.07;;
17921;SDS011;9086;50.966;3.144;2023-03-17T11:09:20;8.93;;;4.03;;
17921;SDS011;9086;50.966;3.144;2023-03-17T11:11:47;7.70;;;4.83;;
17921;SDS011;9086;50.966;3.144;2023-03-17T11:14:14;7.03;;;5.47;;
17921;SDS011;9086;50.966;3.144;2023-03-17T11:17:33;7.33;;;4.10;;
17921;SDS011;9086;50.966;3.144;2023-03-17T11:19:32;6.80;;;4.20;;
17921;SDS011;9086;50.966;3.144;2023-03-17T11:24:33;4.73;;;3.90;;
17921;SDS011;9086;50.966;3.144;2023-03-17T11:27:01;6.93;;;3.93;;
17921;SDS011;9086;50.966;3.144;2023-03-17T11:37:17;6.33;;;3.83;;
17921;SDS011;9086;50.966;3.144;2023-03-17T11:49:49;6.73;;;4.27;;
17921;SDS011;9086;50.966;3.144;2023-03-17T11:52:31;5.97;;;4.20;;
17921;SDS011;9086;50.966;3.144;2023-03-17T11:58:03;6.20;;;4.40;;
17921;SDS011;9086;50.966;3.144;2023-03-17T12:00:34;5.67;;;4.43;;
17921;SDS011;9086;50.966;3.144;2023-03-17T12:03:15;6.47;;;4.40;;
17921;SDS011;9086;50.966;3.144;2023-03-17T12:05:43;6.87;;;4.63;;
17921;SDS011;9086;50.966;3.144;2023-03-17T12:09:16;4.40;;;3.73;;
17921;SDS011;9086;50.966;3.144;2023-03-17T12:11:09;6.80;;;4.37;;
17921;SDS011;9086;50.966;3.144;2023-03-17T12:13:40;7.50;;;4.20;;
17921;SDS011;9086;50.966;3.144;2023-03-17T12:16:14;4.33;;;3.70;;
17921;SDS011;9086;50.966;3.144;2023-03-17T12:23:47;8.70;;;4.23;;
17921;SDS011;9086;50.966;3.144;2023-03-17T12:26:14;4.13;;;3.73;;
17921;SDS011;9086;50.966;3.144;2023-03-17T12:28:56;3.87;;;3.33;;
17921;SDS011;9086;50.966;3.144;2023-03-17T12:31:26;5.57;;;3.83;;
17921;SDS011;9086;50.966;3.144;2023-03-17T12:36:39;7.90;;;4.27;;
17921;SDS011;9086;50.966;3.144;2023-03-17T12:39:07;4.63;;;3.60;;
17921;SDS011;9086;50.966;3.144;2023-03-17T12:49:39;5.57;;;3.93;;
17921;SDS011;9086;50.966;3.144;2023-03-17T12:54:54;5.93;;;3.53;;
17921;SDS011;9086;50.966;3.144;2023-03-17T12:57:26;6.00;;;4.23;;
17921;SDS011;9086;50.966;3.144;2023-03-17T13:00:06;5.10;;;4.00;;
17921;SDS011;9086;50.966;3.144;2023-03-17T13:02:39;5.33;;;3.60;;
17921;SDS011;9086;50.966;3.144;2023-03-17T13:05:07;6.60;;;3.87;;
17921;SDS011;9086;50.966;3.144;2023-03-17T13:10:16;7.23;;;4.10;;
17921;SDS011;9086;50.966;3.144;2023-03-17T13:17:51;5.43;;;3.60;;
17921;SDS011;9086;50.966;3.144;2023-03-17T13:20:36;5.17;;;3.20;;
17921;SDS011;9086;50.966;3.144;2023-03-17T13:41:07;5.03;;;2.87;;
17921;SDS011;9086;50.966;3.144;2023-03-17T13:43:48;6.73;;;2.90;;
17921;SDS011;9086;50.966;3.144;2023-03-17T13:48:43;3.73;;;2.60;;
17921;SDS011;9086;50.966;3.144;2023-03-17T13:53:46;5.63;;;2.93;;
17921;SDS011;9086;50.966;3.144;2023-03-17T13:56:17;5.87;;;2.30;;
17921;SDS011;9086;50.966;3.144;2023-03-17T14:01:18;5.13;;;2.83;;
17921;SDS011;9086;50.966;3.144;2023-03-17T14:03:46;3.27;;;2.50;;
17921;SDS011;9086;50.966;3.144;2023-03-17T14:06:13;4.23;;;2.70;;
17921;SDS011;9086;50.966;3.144;2023-03-17T14:09:01;4.30;;;3.00;;
17921;SDS011;9086;50.966;3.144;2023-03-17T14:11:27;5.60;;;2.73;;
17921;SDS011;9086;50.966;3.144;2023-03-17T14:14:13;4.47;;;2.90;;
17921;SDS011;9086;50.966;3.144;2023-03-17T14:16:43;7.30;;;2.80;;
17921;SDS011;9086;50.966;3.144;2023-03-17T14:19:15;3.33;;;2.30;;
17921;SDS011;9086;50.966;3.144;2023-03-17T14:21:42;3.77;;;2.87;;
17921;SDS011;9086;50.966;3.144;2023-03-17T14:26:45;5.70;;;2.97;;
17921;SDS011;9086;50.966;3.144;2023-03-17T14:29:13;6.07;;;2.90;;
17921;SDS011;9086;50.966;3.144;2023-03-17T14:31:39;6.30;;;3.20;;
17921;SDS011;9086;50.966;3.144;2023-03-17T14:34:11;4.37;;;3.27;;
17921;SDS011;9086;50.966;3.144;2023-03-17T14:36:38;6.87;;;2.93;;
17921;SDS011;9086;50.966;3.144;2023-03-17T14:39:05;5.60;;;3.30;;
17921;SDS011;9086;50.966;3.144;2023-03-17T14:41:31;5.47;;;3.47;;
17921;SDS011;9086;50.966;3.144;2023-03-17T14:43:58;6.17;;;3.40;;
17921;SDS011;9086;50.966;3.144;2023-03-17T14:46:35;5.37;;;4.37;;
17921;SDS011;9086;50.966;3.144;2023-03-17T14:49:13;6.07;;;3.70;;
17921;SDS011;9086;50.966;3.144;2023-03-17T14:51:40;5.23;;;3.73;;
17921;SDS011;9086;50.966;3.144;2023-03-17T14:54:10;6.33;;;3.77;;
17921;SDS011;9086;50.966;3.144;2023-03-17T14:56:40;8.47;;;3.70;;
17921;SDS011;9086;50.966;3.144;2023-03-17T15:01:43;6.63;;;4.20;;
17921;SDS011;9086;50.966;3.144;2023-03-17T15:04:15;6.33;;;4.40;;
17921;SDS011;9086;50.966;3.144;2023-03-17T15:06:49;5.57;;;4.23;;
17921;SDS011;9086;50.966;3.144;2023-03-17T15:09:26;5.40;;;4.03;;
17921;SDS011;9086;50.966;3.144;2023-03-17T15:11:53;5.80;;;3.77;;
17921;SDS011;9086;50.966;3.144;2023-03-17T15:16:51;4.43;;;3.33;;
17921;SDS011;9086;50.966;3.144;2023-03-17T15:21:43;7.97;;;3.73;;
17921;SDS011;9086;50.966;3.144;2023-03-17T15:24:27;5.10;;;2.47;;
17921;SDS011;9086;50.966;3.144;2023-03-17T15:26:59;5.87;;;2.80;;
17921;SDS011;9086;50.966;3.144;2023-03-17T15:29:26;5.20;;;2.10;;
17921;SDS011;9086;50.966;3.144;2023-03-17T15:31:52;6.00;;;2.80;;
17921;SDS011;9086;50.966;3.144;2023-03-17T15:34:19;5.87;;;2.60;;
17921;SDS011;9086;50.966;3.144;2023-03-17T15:36:45;5.30;;;3.13;;
17921;SDS011;9086;50.966;3.144;2023-03-17T15:39:11;9.47;;;2.87;;
17921;SDS011;9086;50.966;3.144;2023-03-17T15:41:37;5.57;;;2.43;;
17921;SDS011;9086;50.966;3.144;2023-03-17T15:44:04;4.97;;;2.63;;
17921;SDS011;9086;50.966;3.144;2023-03-17T15:46:30;4.33;;;2.60;;
17921;SDS011;9086;50.966;3.144;2023-03-17T15:48:57;3.77;;;2.63;;
17921;SDS011;9086;50.966;3.144;2023-03-17T15:51:23;6.00;;;2.80;;
17921;SDS011;9086;50.966;3.144;2023-03-17T15:53:49;3.83;;;2.47;;
17921;SDS011;9086;50.966;3.144;2023-03-17T15:56:17;4.17;;;2.30;;
17921;SDS011;9086;50.966;3.144;2023-03-17T15:58:47;5.80;;;2.33;;
17921;SDS011;9086;50.966;3.144;2023-03-17T16:01:16;5.10;;;2.60;;
17921;SDS011;9086;50.966;3.144;2023-03-17T16:03:42;5.17;;;2.50;;
17921;SDS011;9086;50.966;3.144;2023-03-17T16:06:15;4.90;;;2.47;;
17921;SDS011;9086;50.966;3.144;2023-03-17T16:08:41;5.60;;;2.20;;
17921;SDS011;9086;50.966;3.144;2023-03-17T16:11:14;3.83;;;2.03;;
17921;SDS011;9086;50.966;3.144;2023-03-17T16:13:41;4.57;;;2.47;;
17921;SDS011;9086;50.966;3.144;2023-03-17T16:16:09;4.27;;;2.00;;
17921;SDS011;9086;50.966;3.144;2023-03-17T16:18:39;5.73;;;2.60;;
17921;SDS011;9086;50.966;3.144;2023-03-17T16:21:06;7.47;;;2.67;;
17921;SDS011;9086;50.966;3.144;2023-03-17T16:23:33;3.77;;;2.10;;
17921;SDS011;9086;50.966;3.144;2023-03-17T16:26:00;6.00;;;2.70;;
17921;SDS011;9086;50.966;3.144;2023-03-17T16:28:30;5.20;;;3.37;;
17921;SDS011;9086;50.966;3.144;2023-03-17T16:30:56;5.47;;;3.20;;
17921;SDS011;9086;50.966;3.144;2023-03-17T16:33:27;5.43;;;2.50;;
17921;SDS011;9086;50.966;3.144;2023-03-17T16:35:55;4.87;;;3.70;;
17921;SDS011;9086;50.966;3.144;2023-03-17T16:38:22;8.93;;;5.10;;
17921;SDS011;9086;50.966;3.144;2023-03-17T16:40:52;6.77;;;3.03;;
17921;SDS011;9086;50.966;3.144;2023-03-17T16:43:20;3.07;;;2.70;;
17921;SDS011;9086;50.966;3.144;2023-03-17T16:45:47;4.60;;;3.40;;
17921;SDS011;9086;50.966;3.144;2023-03-17T16:48:13;6.90;;;3.27;;
17921;SDS011;9086;50.966;3.144;2023-03-17T16:50:40;6.50;;;3.57;;
17921;SDS011;9086;50.966;3.144;2023-03-17T16:53:06;7.77;;;4.30;;
17921;SDS011;9086;50.966;3.144;2023-03-17T16:55:33;7.00;;;4.10;;